createdAt,value
2023-03-26T00:02:23.602Z,100.00
2023-03-26T00:05:48.335Z,100.00
2023-03-26T00:09:13.864Z,100.00
2023-03-26T00:12:37.975Z,100.00
2023-03-26T00:16:02.427Z,100.00
2023-03-26T00:19:26.377Z,100.00
2023-03-26T00:22:50.986Z,100.00
2023-03-26T00:26:15.730Z,100.00
2023-03-26T00:29:40.162Z,100.00
2023-03-26T00:33:04.224Z,100.00
2023-03-26T00:36:28.084Z,100.00
2023-03-26T00:39:51.832Z,100.00
2023-03-26T00:43:19.790Z,100.00
2023-03-26T00:46:43.703Z,100.00
2023-03-26T00:50:15.507Z,100.00
2023-03-26T00:53:41.301Z,100.00
2023-03-26T00:57:06.973Z,100.00
2023-03-26T01:00:36.561Z,100.00
2023-03-26T01:04:20.587Z,100.00
2023-03-26T01:07:44.923Z,100.00
2023-03-26T01:11:14.467Z,100.00
2023-03-26T01:14:39.948Z,100.00
2023-03-26T01:18:06.041Z,100.00
2023-03-26T01:21:30.569Z,100.00
2023-03-26T01:24:56.733Z,100.00
2023-03-26T01:28:21.669Z,100.00
2023-03-26T01:32:00.535Z,100.00
2023-03-26T01:35:30.582Z,100.00
2023-03-26T01:39:00.591Z,100.00
2023-03-26T01:42:29.011Z,100.00
2023-03-26T01:45:53.373Z,100.00
2023-03-26T01:49:19.002Z,100.00
2023-03-26T01:52:42.713Z,100.00
2023-03-26T01:56:20.739Z,100.00
2023-03-26T01:59:44.450Z,100.00
2023-03-26T02:03:31.895Z,100.00
2023-03-26T02:07:09.396Z,100.00
2023-03-26T02:10:36.772Z,100.00
2023-03-26T02:14:00.504Z,100.00
2023-03-26T02:17:24.763Z,100.00
2023-03-26T02:20:49.358Z,100.00
2023-03-26T02:24:13.177Z,100.00
2023-03-26T02:27:37.983Z,100.00
2023-03-26T02:31:02.821Z,100.00
2023-03-26T02:34:27.119Z,100.00
2023-03-26T02:37:51.079Z,100.00
2023-03-26T02:41:16.500Z,100.00
2023-03-26T02:44:53.153Z,100.00
2023-03-26T02:48:16.933Z,100.00
2023-03-26T02:51:56.514Z,100.00
2023-03-26T02:55:24.033Z,100.00
2023-03-26T02:58:50.704Z,100.00
2023-03-26T03:02:14.791Z,100.00
2023-03-26T03:05:43.315Z,100.00
2023-03-26T03:09:19.068Z,100.00
2023-03-26T03:13:18.083Z,100.00
2023-03-26T03:16:42.149Z,100.00
2023-03-26T03:20:09.419Z,100.00
2023-03-26T03:23:34.934Z,100.00
2023-03-26T03:27:05.905Z,100.00
2023-03-26T03:30:53.451Z,100.00
2023-03-26T03:34:25.595Z,100.00
2023-03-26T03:37:49.701Z,100.00
2023-03-26T03:41:13.420Z,100.00
2023-03-26T03:44:39.295Z,100.00
2023-03-26T03:48:10.510Z,100.00
2023-03-26T03:51:37.162Z,100.00
2023-03-26T03:55:11.642Z,100.00
2023-03-26T03:58:45.649Z,100.00
2023-03-26T04:02:12.190Z,100.00
2023-03-26T04:05:40.730Z,100.00
2023-03-26T04:09:04.672Z,100.00
2023-03-26T04:12:29.173Z,100.00
2023-03-26T04:15:58.698Z,100.00
2023-03-26T04:19:27.480Z,100.00
2023-03-26T04:22:51.527Z,100.00
2023-03-26T04:26:18.579Z,100.00
2023-03-26T04:29:59.111Z,100.00
2023-03-26T04:33:22.839Z,100.00
2023-03-26T04:36:46.822Z,100.00
2023-03-26T04:40:16.345Z,100.00
2023-03-26T04:43:56.862Z,100.00
2023-03-26T04:47:37.020Z,100.00
2023-03-26T04:51:01.799Z,100.00
2023-03-26T04:54:25.700Z,100.00
2023-03-26T04:57:56.828Z,100.00
2023-03-26T05:01:41.859Z,100.00
2023-03-26T05:05:10.272Z,100.00
2023-03-26T05:08:34.458Z,100.00
2023-03-26T05:11:58.761Z,100.00
2023-03-26T05:15:22.758Z,100.00
2023-03-26T05:18:52.798Z,100.00
2023-03-26T05:22:19.337Z,100.00
2023-03-26T05:26:01.893Z,100.00
2023-03-26T05:29:25.945Z,100.00
2023-03-26T05:32:52.109Z,100.00
2023-03-26T05:36:19.240Z,100.00
2023-03-26T05:39:54.564Z,100.00
2023-03-26T05:43:37.348Z,100.00
2023-03-26T05:47:09.268Z,100.00
2023-03-26T05:50:33.092Z,100.00
2023-03-26T05:53:57.281Z,100.00
2023-03-26T05:57:22.431Z,100.00
2023-03-26T06:01:25.865Z,100.00
2023-03-26T06:05:12.612Z,100.00
2023-03-26T06:09:02.151Z,100.00
2023-03-26T06:12:27.127Z,100.00
2023-03-26T06:15:51.217Z,100.00
2023-03-26T06:19:36.363Z,100.00
2023-03-26T06:23:08.944Z,100.00
2023-03-26T06:26:56.417Z,100.00
2023-03-26T06:30:32.306Z,100.00
2023-03-26T06:34:02.573Z,100.00
2023-03-26T06:37:30.271Z,100.00
2023-03-26T06:41:03.133Z,100.00
2023-03-26T06:44:57.061Z,100.00
2023-03-26T06:48:42.327Z,100.00
2023-03-26T06:52:18.108Z,100.00
2023-03-26T06:55:44.680Z,100.00
2023-03-26T06:59:31.612Z,100.00
2023-03-26T07:03:24.631Z,100.00
2023-03-26T07:07:08.120Z,100.00
2023-03-26T07:10:50.125Z,100.00
2023-03-26T07:14:32.841Z,100.00
2023-03-26T07:18:19.427Z,100.00
2023-03-26T07:21:44.490Z,100.00
2023-03-26T07:25:28.308Z,100.00
2023-03-26T07:29:32.524Z,100.00
2023-03-26T07:34:00.538Z,100.00
2023-03-26T07:38:56.553Z,100.00
2023-03-26T07:43:34.568Z,100.00
2023-03-26T07:47:36.577Z,100.00
2023-03-26T07:51:54.514Z,100.00
2023-03-26T07:56:16.575Z,100.00
2023-03-26T08:00:46.568Z,100.00
2023-03-26T08:04:56.612Z,100.00
2023-03-26T08:09:17.480Z,100.00
2023-03-26T08:13:45.505Z,100.00
2023-03-26T08:17:44.548Z,100.00
2023-03-26T08:21:46.533Z,100.00
2023-03-26T08:25:47.591Z,100.00
2023-03-26T08:29:52.490Z,100.00
2023-03-26T08:33:50.419Z,100.00
2023-03-26T08:37:48.475Z,100.00
2023-03-26T08:41:49.446Z,100.00
2023-03-26T08:45:36.507Z,100.00
2023-03-26T08:49:18.934Z,100.00
2023-03-26T08:53:02.886Z,100.00
2023-03-26T08:56:39.977Z,100.00
2023-03-26T09:00:39.397Z,100.00
2023-03-26T09:04:09.272Z,100.00
2023-03-26T09:07:51.824Z,100.00
2023-03-26T09:11:34.351Z,100.00
2023-03-26T09:15:01.237Z,100.00
2023-03-26T09:18:27.694Z,100.00
2023-03-26T09:21:54.460Z,100.00
2023-03-26T09:25:41.613Z,100.00
2023-03-26T09:29:23.555Z,100.00
2023-03-26T09:32:57.414Z,100.00
2023-03-26T09:36:40.159Z,100.00
2023-03-26T09:40:20.550Z,100.00
2023-03-26T09:44:01.779Z,100.00
2023-03-26T09:47:40.745Z,100.00
2023-03-26T09:51:22.753Z,100.00
2023-03-26T09:54:48.268Z,100.00
2023-03-26T09:58:13.494Z,100.00
2023-03-26T10:01:56.308Z,100.00
2023-03-26T10:05:20.148Z,100.00
2023-03-26T10:08:53.299Z,100.00
2023-03-26T10:12:17.283Z,100.00
2023-03-26T10:15:50.029Z,100.00
2023-03-26T10:19:32.662Z,100.00
2023-03-26T10:22:56.803Z,100.00
2023-03-26T10:26:32.883Z,100.00
2023-03-26T10:30:18.938Z,100.00
2023-03-26T10:33:43.597Z,100.00
2023-03-26T10:37:11.266Z,100.00
2023-03-26T10:40:44.534Z,100.00
2023-03-26T10:44:10.992Z,100.00
2023-03-26T10:47:35.025Z,100.00
2023-03-26T10:51:18.499Z,100.00
2023-03-26T10:54:45.322Z,100.00
2023-03-26T10:58:14.878Z,100.00
2023-03-26T11:01:54.612Z,100.00
2023-03-26T11:05:18.452Z,100.00
2023-03-26T11:09:01.152Z,100.00
2023-03-26T11:12:37.104Z,100.00
2023-03-26T11:16:06.295Z,100.00
2023-03-26T11:19:42.760Z,100.00
2023-03-26T11:23:26.850Z,100.00
2023-03-26T11:26:55.877Z,100.00
2023-03-26T11:30:30.225Z,100.00
2023-03-26T11:33:56.896Z,100.00
2023-03-26T11:37:26.848Z,100.00
2023-03-26T11:40:54.236Z,100.00
2023-03-26T11:44:40.490Z,100.00
2023-03-26T11:48:08.242Z,100.00
2023-03-26T11:51:36.854Z,100.00
2023-03-26T11:55:00.607Z,100.00
2023-03-26T11:58:38.537Z,100.00
2023-03-26T12:02:05.609Z,100.00
2023-03-26T12:05:34.943Z,100.00
2023-03-26T12:08:58.770Z,100.00
2023-03-26T12:12:23.304Z,100.00
2023-03-26T12:15:47.040Z,100.00
2023-03-26T12:19:21.169Z,100.00
2023-03-26T12:22:47.882Z,100.00
2023-03-26T12:26:19.141Z,100.00
2023-03-26T12:29:43.407Z,100.00
2023-03-26T12:33:08.926Z,100.00
2023-03-26T12:36:33.949Z,100.00
2023-03-26T12:40:22.087Z,100.00
2023-03-26T12:44:47.106Z,100.00
2023-03-26T12:47:59.129Z,100.00
2023-03-26T12:51:27.137Z,100.00
2023-03-26T12:54:53.865Z,100.00
2023-03-26T12:58:24.915Z,100.00
2023-03-26T13:01:52.936Z,100.00
2023-03-26T13:05:26.651Z,99.95
2023-03-26T13:08:50.466Z,99.79
2023-03-26T13:12:28.484Z,97.52
2023-03-26T13:15:59.141Z,96.55
2023-03-26T13:19:39.321Z,96.47
2023-03-26T13:23:03.174Z,94.99
2023-03-26T13:26:26.942Z,92.94
2023-03-26T13:29:56.467Z,94.67
2023-03-26T13:33:29.363Z,96.70
2023-03-26T13:36:56.247Z,97.13
2023-03-26T13:40:26.077Z,99.74
2023-03-26T13:43:52.621Z,100.00
2023-03-26T13:47:27.096Z,100.00
2023-03-26T13:51:04.785Z,100.00
2023-03-26T13:54:31.323Z,100.00
2023-03-26T13:57:59.487Z,100.00
2023-03-26T14:01:35.302Z,100.00
2023-03-26T14:05:04.779Z,100.00
2023-03-26T14:08:32.893Z,100.00
2023-03-26T14:11:56.926Z,100.00
2023-03-26T14:15:27.807Z,100.00
2023-03-26T14:19:00.637Z,100.00
2023-03-26T14:22:38.599Z,100.00
2023-03-26T14:26:05.321Z,100.00
2023-03-26T14:29:56.624Z,100.00
2023-03-26T14:33:28.515Z,100.00
2023-03-26T14:37:11.151Z,100.00
2023-03-26T14:40:46.695Z,100.00
2023-03-26T14:44:29.348Z,100.00
2023-03-26T14:48:30.685Z,100.00
2023-03-26T14:52:03.312Z,100.00
2023-03-26T14:55:45.961Z,99.45
2023-03-26T14:59:36.570Z,97.17
2023-03-26T15:03:22.255Z,94.74
2023-03-26T15:06:48.740Z,93.09
2023-03-26T15:10:25.034Z,90.91
2023-03-26T15:14:00.540Z,89.91
2023-03-26T15:17:38.479Z,86.87
2023-03-26T15:21:08.171Z,86.97
2023-03-26T15:24:32.356Z,87.07
2023-03-26T15:28:08.381Z,88.38
2023-03-26T15:31:41.043Z,91.18
2023-03-26T15:35:05.989Z,92.70
2023-03-26T15:38:48.517Z,93.58
2023-03-26T15:42:12.265Z,94.46
2023-03-26T15:45:43.575Z,95.88
2023-03-26T15:49:16.596Z,97.13
2023-03-26T15:52:43.961Z,99.08
2023-03-26T15:56:17.786Z,99.87
2023-03-26T15:59:41.893Z,100.00
2023-03-26T16:03:31.056Z,100.00
2023-03-26T16:07:03.788Z,100.00
2023-03-26T16:10:30.569Z,100.00
2023-03-26T16:14:17.932Z,100.00
2023-03-26T16:18:01.077Z,100.00
2023-03-26T16:21:34.506Z,100.00
2023-03-26T16:25:27.816Z,100.00
2023-03-26T16:28:53.154Z,100.00
2023-03-26T16:32:33.855Z,100.00
2023-03-26T16:36:05.852Z,100.00
2023-03-26T16:39:40.555Z,100.00
2023-03-26T16:43:16.117Z,100.00
2023-03-26T16:47:06.060Z,100.00
2023-03-26T16:50:31.106Z,100.00
2023-03-26T16:54:06.396Z,100.00
2023-03-26T16:57:38.623Z,100.00
2023-03-26T17:01:22.775Z,100.00
2023-03-26T17:05:07.874Z,100.00
2023-03-26T17:08:53.378Z,100.00
2023-03-26T17:12:26.228Z,100.00
2023-03-26T17:16:06.606Z,100.00
2023-03-26T17:19:36.314Z,100.00
2023-03-26T17:23:03.125Z,100.00
2023-03-26T17:26:41.288Z,100.00
2023-03-26T17:30:25.196Z,100.00
2023-03-26T17:33:49.970Z,100.00
2023-03-26T17:37:20.118Z,100.00
2023-03-26T17:40:49.782Z,100.00
2023-03-26T17:44:37.188Z,100.00
2023-03-26T17:48:10.092Z,100.00
2023-03-26T17:51:51.527Z,100.00
2023-03-26T17:55:21.071Z,100.00
2023-03-26T17:58:47.971Z,100.00
2023-03-26T18:02:18.615Z,100.00
2023-03-26T18:05:42.735Z,100.00
2023-03-26T18:09:08.035Z,100.00
2023-03-26T18:12:47.605Z,100.00
2023-03-26T18:16:20.941Z,100.00
2023-03-26T18:19:53.476Z,100.00
2023-03-26T18:23:27.787Z,100.00
2023-03-26T18:27:12.607Z,100.00
2023-03-26T18:30:46.690Z,100.00
2023-03-26T18:34:18.550Z,100.00
2023-03-26T18:37:44.378Z,100.00
2023-03-26T18:41:13.389Z,100.00
2023-03-26T18:44:37.661Z,100.00
2023-03-26T18:48:14.245Z,100.00
2023-03-26T18:51:46.417Z,100.00
2023-03-26T18:55:18.285Z,100.00
2023-03-26T18:58:43.971Z,100.00
2023-03-26T19:02:11.437Z,100.00
2023-03-26T19:05:36.620Z,100.00
2023-03-26T19:09:01.432Z,100.00
2023-03-26T19:12:29.826Z,100.00
2023-03-26T19:15:56.865Z,100.00
2023-03-26T19:19:23.213Z,100.00
2023-03-26T19:22:48.340Z,100.00
2023-03-26T19:26:12.644Z,100.00
2023-03-26T19:29:37.293Z,100.00
2023-03-26T19:33:12.137Z,100.00
2023-03-26T19:36:52.570Z,100.00
2023-03-26T19:40:25.816Z,100.00
2023-03-26T19:43:55.915Z,100.00
2023-03-26T19:47:35.291Z,100.00
2023-03-26T19:51:20.081Z,100.00
2023-03-26T19:54:59.964Z,100.00
2023-03-26T19:58:25.962Z,100.00
2023-03-26T20:02:09.919Z,100.00
2023-03-26T20:06:07.720Z,100.00
2023-03-26T20:10:05.970Z,100.00
2023-03-26T20:14:04.688Z,100.00
2023-03-26T20:18:02.755Z,100.00
2023-03-26T20:22:00.642Z,100.00
2023-03-26T20:26:03.747Z,100.00
2023-03-26T20:30:01.845Z,100.00
2023-03-26T20:34:02.662Z,100.00
2023-03-26T20:38:00.598Z,100.00
2023-03-26T20:42:00.644Z,100.00
2023-03-26T20:45:58.640Z,100.00
2023-03-26T20:49:57.654Z,100.00
2023-03-26T20:53:58.613Z,100.00
2023-03-26T20:57:56.636Z,100.00
2023-03-26T21:01:55.630Z,100.00
2023-03-26T21:05:54.697Z,100.00
2023-03-26T21:09:52.580Z,100.00
2023-03-26T21:14:25.672Z,100.00
2023-03-26T21:18:23.640Z,100.00
2023-03-26T21:22:38.732Z,100.00
2023-03-26T21:26:42.591Z,100.00
2023-03-26T21:30:40.629Z,100.00
2023-03-26T21:34:47.836Z,100.00
2023-03-26T21:38:53.585Z,100.00
2023-03-26T21:42:51.518Z,100.00
2023-03-26T21:46:49.572Z,100.00
2023-03-26T21:50:47.529Z,100.00
2023-03-26T21:54:49.536Z,100.00
2023-03-26T21:58:49.535Z,100.00
2023-03-26T22:03:00.674Z,100.00
2023-03-26T22:07:00.540Z,100.00
2023-03-26T22:10:58.708Z,100.00
2023-03-26T22:14:56.491Z,100.00
2023-03-26T22:18:54.671Z,100.00
2023-03-26T22:22:55.531Z,100.00
2023-03-26T22:26:53.516Z,100.00
2023-03-26T22:30:51.549Z,100.00
2023-03-26T22:34:49.495Z,100.00
2023-03-26T22:38:54.600Z,100.00
2023-03-26T22:42:52.545Z,100.00
2023-03-26T22:46:51.816Z,100.00
2023-03-26T22:50:49.495Z,100.00
2023-03-26T22:54:47.446Z,100.00
2023-03-26T22:58:45.457Z,100.00
2023-03-26T23:02:43.461Z,100.00
2023-03-26T23:06:42.499Z,100.00
2023-03-26T23:10:41.471Z,100.00
2023-03-26T23:14:39.514Z,100.00
2023-03-26T23:18:37.418Z,100.00
2023-03-26T23:22:35.455Z,100.00
2023-03-26T23:26:49.494Z,100.00
2023-03-26T23:30:48.451Z,100.00
2023-03-26T23:34:52.447Z,100.00
2023-03-26T23:38:53.445Z,100.00
2023-03-26T23:42:51.417Z,100.00
2023-03-26T23:46:49.417Z,100.00
2023-03-26T23:50:47.385Z,100.00
2023-03-26T23:54:45.420Z,100.00
2023-03-26T23:58:44.390Z,100.00
